createdAt,value
2018-04-18T00:08:37.605Z,0.0
2018-04-18T00:22:59.025Z,0.0
2018-04-18T00:34:48.777Z,0.0
2018-04-18T00:49:46.384Z,0.0
2018-04-18T01:02:24.261Z,0.0
2018-04-18T01:14:28.573Z,0.0
2018-04-18T01:25:20.564Z,0.0
2018-04-18T01:54:06.259Z,0.0
2018-04-18T02:21:25.063Z,0.0
2018-04-18T02:32:42.125Z,0.0
2018-04-18T02:42:56.665Z,0.0
2018-04-18T02:54:10.314Z,0.0
2018-04-18T03:22:37.277Z,0.0
2018-04-18T03:35:40.665Z,0.0
2018-04-18T04:12:52.577Z,0.0
2018-04-18T04:39:56.879Z,15.0
2018-04-18T04:52:54.401Z,30.0
2018-04-18T05:03:39.873Z,50.0
2018-04-18T05:13:51.367Z,65.0
2018-04-18T05:37:46.940Z,95.0
2018-04-18T05:50:14.634Z,110.0
2018-04-18T06:01:41.820Z,125.0
2018-04-18T06:15:38.084Z,140.0
2018-04-18T06:39:25.751Z,170.0
2018-04-18T07:05:56.204Z,465.0
2018-04-18T07:16:10.699Z,500.0
2018-04-18T07:42:18.603Z,475.0
2018-04-18T07:57:38.046Z,520.0
2018-04-18T08:08:07.111Z,575.0
2018-04-18T08:31:26.353Z,725.0
2018-04-18T08:41:40.999Z,1045.0
2018-04-18T08:53:12.309Z,1405.0
2018-04-18T09:13:42.888Z,1555.0
2018-04-18T09:24:16.542Z,1630.0
2018-04-18T09:44:46.838Z,1950.0
2018-04-18T09:55:01.007Z,2295.0
2018-04-18T10:05:15.664Z,2250.0
2018-04-18T10:25:43.643Z,2435.0
2018-04-18T10:35:58.028Z,2060.0
2018-04-18T10:46:12.139Z,2120.0
2018-04-18T10:56:26.775Z,2400.0
2018-04-18T11:06:41.114Z,2310.0
2018-04-18T11:16:54.791Z,2385.0
2018-04-18T11:27:09.204Z,2075.0
2018-04-18T11:37:25.421Z,2180.0
2018-04-18T11:47:40.736Z,2285.0
2018-04-18T11:57:53.656Z,2230.0
2018-04-18T12:08:09.054Z,1825.0
2018-04-18T12:18:23.827Z,2095.0
2018-04-18T12:28:38.383Z,2300.0
2018-04-18T12:38:50.460Z,2250.0
2018-04-18T12:49:02.274Z,2170.0
2018-04-18T12:59:14.529Z,1995.0
2018-04-18T13:09:26.391Z,1970.0
2018-04-18T13:19:40.454Z,2025.0
2018-04-18T13:29:54.791Z,1850.0
2018-04-18T13:40:06.971Z,2065.0
2018-04-18T13:54:34.522Z,0.0
2018-04-18T14:04:48.120Z,0.0
2018-04-18T14:15:33.378Z,0.0
2018-04-18T14:26:21.915Z,0.0
2018-04-18T14:36:34.430Z,0.0
2018-04-18T14:46:46.272Z,0.0
2018-04-18T14:57:01.222Z,0.0
2018-04-18T15:07:12.935Z,0.0
2018-04-18T15:17:25.556Z,0.0
2018-04-18T15:27:39.612Z,0.0
2018-04-18T15:37:53.630Z,0.0
2018-04-18T15:48:08.348Z,0.0
2018-04-18T15:58:53.591Z,0.0
2018-04-18T16:09:07.139Z,0.0
2018-04-18T16:19:55.438Z,0.0
2018-04-18T16:30:43.739Z,0.0
2018-04-18T16:41:00.220Z,0.0
2018-04-18T16:51:16.561Z,0.0
2018-04-18T17:01:30.908Z,0.0
2018-04-18T17:11:43.265Z,0.0
2018-04-18T17:21:56.269Z,0.0
2018-04-18T17:45:00.944Z,0.0
2018-04-18T17:56:44.210Z,0.0
2018-04-18T19:09:07.035Z,0.0
2018-04-18T19:20:30.534Z,0.0
2018-04-18T19:31:15.817Z,0.0
2018-04-18T19:42:34.520Z,0.0
2018-04-18T20:11:36.040Z,0.0
2018-04-18T20:25:48.039Z,0.0
2018-04-18T20:36:32.742Z,0.0
2018-04-18T20:46:44.744Z,0.0
2018-04-18T20:58:06.729Z,0.0
2018-04-18T21:08:55.256Z,0.0
2018-04-18T21:19:10.089Z,0.0
2018-04-18T21:29:24.457Z,0.0
2018-04-18T21:39:38.376Z,0.0
2018-04-18T21:49:54.667Z,0.0
2018-04-18T22:00:09.176Z,0.0
2018-04-18T22:10:22.642Z,0.0
2018-04-18T22:20:36.224Z,0.0
2018-04-18T22:31:21.426Z,0.0
2018-04-18T22:41:33.295Z,0.0
2018-04-18T22:52:18.629Z,0.0
2018-04-18T23:02:32.794Z,0.0
2018-04-18T23:12:46.568Z,0.0
2018-04-18T23:23:00.508Z,0.0
2018-04-18T23:33:15.022Z,0.0
2018-04-18T23:43:29.017Z,0.0
2018-04-18T23:54:13.426Z,0.0
